Startpagina
METAR-TAF:

METAR-TAF

Vliegvelden :

Marshall Islands International Airport

Majuro, Marshalleilanden

breedte: 07-04N, lengte: 171-17E, hoogte: 2 m

Actueel weer

Dit bericht is 5 uur en het 8 minuten geleden gemaakt, om 07:52 UTC
Wind 15 kt uit het oostnoordoosten
Temperatuur 30°C
Vochtigheid 75%
Druk 1011 hPa
Zicht: 24.1 km
Weinig wolken op 1500 ft
Verspreide wolken op 5000 ft
Gebroken wolken op 12000 ft
Geheel bewolkt op 30000 ft

METAR: PKMJ 210752Z 06015KT 15SM FEW015 SCT050 BKN120 OVC300 30/25 A2984 RMK LAST

Tijdstip: 01:00 (13:00 UTC)

Verwachting

Dit bericht is 1 uur en het 33 minuten geleden gemaakt, om 11:27 UTC
Verwachting geldig van 21 om 12 UTC tot 22 om 12 UTC
Wind 11 kt uit het oosten
Zicht: 10 km
Verspreide wolken op 1500 ft
Verspreide wolken op 5000 ft
Gebroken wolken op 12000 ft
buien in de omgeving

TAF: PKMJ 211127Z 2112/2212 08011KT P6SM VCSH SCT015 SCT050 BKN120

Waarnemingen en weersverwachtingen van meer dan 4000 vliegvelden (METAR en TAF).

De beschikbare stations zijn de gele en rode punten op de kaart.

Ga met uw muis naar het station om de naam te zien.

Klik dan om waarnemingen en weersverwachtingen te zien.

kaart wijzigen: klik op de groene knoppen met een zwart kruis om in te zoomen, op de groene knop met een streepje om uit te zoomen of op de groene pijlen voor aangrenzende kaarten.


METAR-TAF: